Time;durP1;ratioP1;P1;durP2;ratioP2;P2;SDS_P1;SDS_P2;PMS_P1;PMS_P2;Temp;Humidity;BMP_temperature;BMP_pressure;BME280_temperature;BME280_humidity;BME280_pressure;Samples;Min_cycle;Max_cycle;Signal;HPM_P1;HPM_P2
2022/07/22 00:02:04;;;;;;;5.18;2.80;;;;;;;24.21;45.53;101712.53;4956014;28;20047;-87
2022/07/22 00:04:33;;;;;;;4.65;2.70;;;;;;;24.19;45.57;101704.34;4953124;28;20454;-87
2022/07/22 00:07:01;;;;;;;4.47;2.83;;;;;;;24.16;45.29;101701.91;4955478;29;20100;-87
2022/07/22 00:09:32;;;;;;;4.28;2.78;;;;;;;24.18;45.72;101712.84;4952716;28;20043;-86
2022/07/22 00:12:01;;;;;;;5.43;3.03;;;;;;;24.13;45.29;101701.41;4953939;29;20407;-86
2022/07/22 00:14:29;;;;;;;5.55;3.03;;;;;;;24.14;45.36;101708.66;4953620;28;20047;-87
2022/07/22 00:16:57;;;;;;;4.45;2.90;;;;;;;24.13;45.25;101706.94;4954582;29;20501;-85
2022/07/22 00:19:25;;;;;;;5.35;2.95;;;;;;;24.12;45.45;101705.22;4948934;28;20127;-85
2022/07/22 00:21:54;;;;;;;4.45;2.53;;;;;;;24.09;45.41;101708.31;4953977;29;20466;-87
2022/07/22 00:24:22;;;;;;;6.13;2.88;;;;;;;24.08;45.43;101704.66;4951695;28;20439;-87
2022/07/22 00:26:52;;;;;;;5.35;2.60;;;;;;;24.09;45.55;101702.75;4953606;29;20043;-87
2022/07/22 00:29:20;;;;;;;3.67;2.20;;;;;;;24.06;45.73;101706.72;4949963;28;20150;-86
2022/07/22 00:31:48;;;;;;;4.00;2.50;;;;;;;24.08;45.64;101709.34;4955275;29;20039;-87
2022/07/22 00:34:20;;;;;;;5.30;2.88;;;;;;;24.03;45.49;101700.66;4957916;28;20502;-87
2022/07/22 00:36:48;;;;;;;6.43;2.55;;;;;;;24.06;45.65;101705.84;4969648;28;20038;-86
2022/07/22 00:39:16;;;;;;;4.03;2.53;;;;;;;24.06;45.61;101705.84;4959388;28;20051;-87
2022/07/22 00:41:45;;;;;;;3.90;2.25;;;;;;;24.03;45.58;101698.78;4944027;29;20052;-87
2022/07/22 00:44:14;;;;;;;3.60;2.40;;;;;;;24.05;46.03;101701.38;4949413;28;20043;-87
2022/07/22 00:46:43;;;;;;;4.65;2.72;;;;;;;24.02;45.74;101702.56;4947846;28;20078;-87
2022/07/22 00:49:12;;;;;;;4.68;3.00;;;;;;;24.03;45.83;101703.44;4953109;28;20429;-88
2022/07/22 00:51:40;;;;;;;4.22;2.55;;;;;;;24.02;46.02;101701.69;4952796;28;20106;-85
2022/07/22 00:54:09;;;;;;;4.80;2.90;;;;;;;24.01;45.94;101705.50;4957911;28;20043;-85
2022/07/22 00:56:38;;;;;;;4.70;2.80;;;;;;;24.02;45.91;101701.69;4968146;28;20047;-85
2022/07/22 02:17:04;;;;;;;6.40;3.47;;;;;;;23.59;47.07;101681.44;4957107;29;20075;-87
2022/07/22 02:19:33;;;;;;;5.60;3.58;;;;;;;23.59;46.67;101678.69;4939216;29;20410;-84
2022/07/22 02:22:01;;;;;;;6.70;3.55;;;;;;;23.62;46.62;101675.59;4952040;28;20075;-85
2022/07/22 02:24:29;;;;;;;5.35;3.72;;;;;;;23.65;46.64;101677.13;4957671;28;20039;-85
2022/07/22 02:26:57;;;;;;;4.93;3.38;;;;;;;23.66;46.86;101678.88;4974201;28;20085;-84
2022/07/22 02:29:26;;;;;;;5.35;3.38;;;;;;;23.67;46.99;101675.94;4957260;28;20114;-84
2022/07/22 02:31:55;;;;;;;6.65;3.70;;;;;;;23.69;46.91;101676.66;4952862;28;20127;-84
2022/07/22 02:34:23;;;;;;;7.28;3.38;;;;;;;23.70;46.89;101674.75;4960243;28;20051;-86
2022/07/22 02:36:51;;;;;;;4.75;3.22;;;;;;;23.71;47.12;101673.72;4943865;29;20483;-85
2022/07/22 02:39:20;;;;;;;5.28;3.53;;;;;;;23.70;46.92;101661.75;4954068;28;20050;-84
2022/07/22 02:41:48;;;;;;;4.65;3.50;;;;;;;23.73;46.74;101663.28;4965275;28;20043;-85
2022/07/22 02:44:16;;;;;;;5.43;3.50;;;;;;;23.74;47.00;101670.56;4963807;28;20050;-85
2022/07/22 02:46:45;;;;;;;4.78;3.28;;;;;;;23.74;46.83;101670.56;4971345;28;20426;-85
2022/07/22 02:49:23;;;;;;;6.03;3.60;;;;;;;23.74;47.01;101671.44;4955477;28;20047;-84
2022/07/22 02:51:51;;;;;;;4.85;3.17;;;;;;;23.73;47.05;101668.84;4958703;28;20043;-85
2022/07/22 02:54:20;;;;;;;5.97;3.40;;;;;;;23.73;47.09;101675.25;4957320;28;20043;-85
2022/07/22 02:56:50;;;;;;;6.05;3.17;;;;;;;23.73;46.58;101674.38;4961098;28;20727;-86
2022/07/22 02:59:18;;;;;;;5.20;3.05;;;;;;;23.73;46.84;101672.47;4962365;28;20043;-86
2022/07/22 03:01:46;;;;;;;4.85;2.90;;;;;;;23.72;46.82;101676.28;4961281;28;20039;-85
2022/07/22 03:04:14;;;;;;;4.22;2.92;;;;;;;23.75;46.57;101683.41;4949601;28;20123;-85
2022/07/22 03:06:45;;;;;;;4.85;2.75;;;;;;;23.74;46.77;101677.00;4938055;29;20044;-86
2022/07/22 03:09:19;;;;;;;4.97;2.60;;;;;;;23.71;46.83;101677.34;4946193;28;20039;-84
2022/07/22 03:11:48;;;;;;;4.13;2.75;;;;;;;23.73;46.65;101689.13;4955221;28;20051;-86
2022/07/22 03:14:18;;;;;;;4.75;2.78;;;;;;;23.72;46.77;101684.59;4955498;28;20035;-86
2022/07/22 03:16:46;;;;;;;5.25;3.00;;;;;;;23.74;46.64;101687.22;4960202;28;20155;-86
2022/07/22 03:19:15;;;;;;;3.75;2.55;;;;;;;23.72;46.97;101686.53;4969492;28;20046;-84
2022/07/22 03:21:49;;;;;;;4.88;2.60;;;;;;;23.71;46.94;101688.44;4973214;28;20075;-84
2022/07/22 03:24:20;;;;;;;4.90;2.88;;;;;;;23.72;46.87;101684.59;4976101;28;20043;-86
2022/07/22 03:26:49;;;;;;;4.45;2.88;;;;;;;23.70;46.63;101683.94;4964650;28;20043;-86
2022/07/22 03:29:17;;;;;;;4.93;3.25;;;;;;;23.67;46.56;101681.47;4963882;28;20062;-85
2022/07/22 03:31:45;;;;;;;5.75;3.75;;;;;;;23.69;46.73;101684.97;4963298;28;20146;-86
2022/07/22 03:34:14;;;;;;;5.70;3.65;;;;;;;23.68;47.03;101682.34;4996928;22;20054;-84
2022/07/22 04:06:06;;;;;;;5.55;3.20;;;;;;;23.42;47.49;101679.59;5007124;28;20076;-73
2022/07/22 04:08:51;;;;;;;5.80;3.80;;;;;;;23.42;47.00;101676.84;5005059;28;20038;-73
2022/07/22 04:11:19;;;;;;;5.55;3.67;;;;;;;23.43;47.45;101671.13;5011466;28;20144;-72
2022/07/22 04:13:47;;;;;;;5.63;3.90;;;;;;;23.44;47.43;101675.66;5014076;28;20125;-72
2022/07/22 04:16:15;;;;;;;5.85;4.47;;;;;;;23.45;47.01;101679.28;5005533;28;20108;-73
2022/07/22 04:18:51;;;;;;;6.55;4.05;;;;;;;23.44;47.17;101675.66;4991825;28;20623;-73
2022/07/22 04:21:35;;;;;;;;;;;;;;;23.17;47.76;101670.28;5007825;28;20049;-72
2022/07/22 04:24:09;;;;;;;6.70;4.35;;;;;;;23.42;47.05;101676.84;5004369;28;19971;-72
2022/07/22 04:26:37;;;;;;;8.35;5.28;;;;;;;23.45;47.42;101674.59;4998162;28;20058;-72
2022/07/22 04:29:06;;;;;;;8.35;5.63;;;;;;;23.46;47.05;101667.16;4998488;28;20042;-72
2022/07/22 04:31:34;;;;;;;8.20;5.85;;;;;;;23.44;46.93;101664.56;4988994;28;20114;-73
2022/07/22 04:34:11;;;;;;;10.60;6.50;;;;;;;23.45;46.91;101674.59;5002678;28;20034;-72
2022/07/22 04:36:40;;;;;;;8.38;5.80;;;;;;;23.45;47.29;101671.84;4987485;28;20137;-73
2022/07/22 04:39:09;;;;;;;9.57;5.38;;;;;;;23.43;47.10;101664.72;5005497;28;20056;-72
2022/07/22 04:41:42;;;;;;;6.93;4.45;;;;;;;23.40;46.79;101665.91;5028454;28;20048;-72
2022/07/22 04:44:11;;;;;;;7.95;4.85;;;;;;;23.40;47.08;101667.81;5021647;28;20065;-73
2022/07/22 04:46:39;;;;;;;8.27;4.15;;;;;;;23.40;46.92;101665.03;5021516;28;20124;-73
2022/07/22 04:49:08;;;;;;;5.82;3.97;;;;;;;23.39;46.49;101668.88;5014455;28;20054;-73
2022/07/22 04:51:36;;;;;;;5.10;3.60;;;;;;;23.37;46.78;101674.56;5001110;28;20038;-71
2022/07/22 04:54:07;;;;;;;6.72;3.50;;;;;;;23.38;46.90;101681.00;4991787;28;20559;-72
2022/07/22 04:56:40;;;;;;;6.13;3.08;;;;;;;23.33;46.96;101684.25;5006580;28;20056;-71
2022/07/22 04:59:08;;;;;;;4.32;2.67;;;;;;;23.34;46.80;101679.56;5005147;28;20042;-72
2022/07/22 05:01:37;;;;;;;4.03;2.30;;;;;;;23.32;46.85;101676.09;4989537;28;20045;-72
2022/07/22 05:04:08;;;;;;;4.70;2.63;;;;;;;23.31;46.66;101688.19;5014939;28;20061;-71
2022/07/22 05:06:38;;;;;;;4.45;2.15;;;;;;;23.31;46.98;101689.06;4987203;28;20042;-71
2022/07/22 05:09:08;;;;;;;4.10;2.10;;;;;;;23.33;46.74;101681.47;5007227;28;20038;-71
2022/07/22 05:11:36;;;;;;;5.13;1.90;;;;;;;23.31;46.74;101683.53;5005102;28;20507;-71
2022/07/22 05:14:04;;;;;;;4.30;1.85;;;;;;;23.31;46.32;101683.53;4992621;28;20045;-71
2022/07/22 05:16:33;;;;;;;3.67;1.90;;;;;;;23.32;46.82;101687.16;5003042;28;20553;-71
2022/07/22 05:19:01;;;;;;;4.03;1.80;;;;;;;23.32;46.73;101693.56;4993453;28;20095;-71
2022/07/22 05:21:29;;;;;;;3.03;1.80;;;;;;;23.32;46.37;101690.81;5022244;28;20057;-71
2022/07/22 05:23:57;;;;;;;3.85;1.80;;;;;;;23.33;46.54;101681.47;5030358;28;20049;-72
2022/07/22 05:26:29;;;;;;;3.92;1.92;;;;;;;23.35;46.84;101684.94;5007614;28;20455;-71
2022/07/22 05:28:57;;;;;;;3.13;1.70;;;;;;;23.34;46.75;101674.91;5026902;28;20410;-71
2022/07/22 05:31:28;;;;;;;3.60;1.75;;;;;;;23.34;46.49;101685.09;5025593;28;20042;-71
2022/07/22 05:33:56;;;;;;;4.10;1.90;;;;;;;23.35;46.76;101681.31;5029181;28;20033;-71
2022/07/22 05:36:27;;;;;;;3.67;1.60;;;;;;;23.37;46.83;101682.00;5005482;28;20718;-71
2022/07/22 05:38:56;;;;;;;4.03;1.65;;;;;;;23.37;46.90;101679.25;5008424;28;20152;-72
2022/07/22 05:41:25;;;;;;;4.22;1.77;;;;;;;23.38;46.60;101679.09;5018913;28;20046;-71
2022/07/22 05:43:54;;;;;;;4.95;1.67;;;;;;;23.41;46.57;101675.97;5016314;28;20041;-71
2022/07/22 05:46:23;;;;;;;3.53;1.67;;;;;;;23.40;46.20;101681.66;4999280;28;20054;-76
2022/07/22 05:48:51;;;;;;;3.85;1.60;;;;;;;23.40;45.95;101676.13;5012829;28;20050;-71
2022/07/22 05:51:19;;;;;;;3.97;1.60;;;;;;;23.40;46.52;101673.34;4984983;28;20546;-71
2022/07/22 05:53:48;;;;;;;3.50;1.75;;;;;;;23.40;46.50;101673.34;4987553;28;20045;-71
2022/07/22 05:56:16;;;;;;;3.45;1.42;;;;;;;23.38;46.21;101681.84;5007960;28;20149;-70
2022/07/22 05:58:45;;;;;;;5.70;1.77;;;;;;;23.38;46.46;101679.09;4986878;28;20422;-71
2022/07/22 06:01:14;;;;;;;3.70;1.80;;;;;;;23.41;46.25;101677.88;5020138;28;20033;-71
2022/07/22 06:03:44;;;;;;;4.03;1.80;;;;;;;23.39;46.51;101668.88;5012475;28;20121;-72
2022/07/22 06:06:14;;;;;;;3.30;1.85;;;;;;;23.37;46.09;101674.56;4989522;28;20060;-71
2022/07/22 06:08:43;;;;;;;4.63;1.60;;;;;;;23.37;46.27;101668.16;5009426;28;20058;-71
2022/07/22 06:11:14;;;;;;;3.38;1.58;;;;;;;23.36;46.04;101671.97;4988857;28;20065;-71
2022/07/22 06:13:42;;;;;;;3.95;1.60;;;;;;;23.36;46.26;101677.50;5010641;28;20038;-71
2022/07/22 06:16:10;;;;;;;4.78;1.85;;;;;;;23.36;46.09;101680.28;5006370;28;20422;-71
2022/07/22 06:18:42;;;;;;;4.07;1.73;;;;;;;23.38;46.37;101683.75;5006103;28;20042;-72
2022/07/22 06:21:10;;;;;;;5.55;2.00;;;;;;;23.37;46.23;101693.09;4989635;28;20141;-72
2022/07/22 06:23:39;;;;;;;8.95;2.00;;;;;;;23.34;45.93;101674.91;4997424;28;20049;-72
2022/07/22 06:26:07;;;;;;;5.13;1.60;;;;;;;23.35;45.98;101684.06;5002476;28;20529;-72
2022/07/22 06:28:36;;;;;;;3.53;1.70;;;;;;;23.36;46.26;101680.28;4999038;28;20049;-72
2022/07/22 06:31:05;;;;;;;3.50;1.90;;;;;;;23.36;45.83;101680.28;4996375;28;20136;-72
2022/07/22 06:33:33;;;;;;;3.92;1.88;;;;;;;23.35;46.02;101675.75;5003967;28;20056;-72
2022/07/22 06:36:04;;;;;;;3.75;2.15;;;;;;;23.38;46.06;101681.84;5005760;28;20053;-72
2022/07/22 06:38:32;;;;;;;3.35;1.95;;;;;;;23.35;46.03;101681.31;5009597;28;20049;-72
2022/07/22 06:41:31;;;;;;;4.68;2.35;;;;;;;23.34;45.80;101685.09;5009585;28;20501;-72
2022/07/22 06:44:05;;;;;;;4.97;2.38;;;;;;;23.34;45.66;101680.44;5023556;28;20099;-72
2022/07/22 06:46:52;;;;;;;5.85;2.05;;;;;;;23.31;45.99;101675.22;5019212;28;20494;-71
2022/07/22 06:49:23;;;;;;;3.33;2.10;;;;;;;23.32;45.64;101671.41;4999004;28;20049;-71
2022/07/22 06:51:54;;;;;;;4.57;2.13;;;;;;;23.33;46.01;101669.50;4982989;28;20741;-71
2022/07/22 06:54:23;;;;;;;4.80;2.30;;;;;;;23.31;45.92;101671.56;5001157;28;20037;-71
2022/07/22 06:56:52;;;;;;;4.78;2.17;;;;;;;23.31;45.67;101675.22;5013397;28;20521;-71
2022/07/22 06:59:26;;;;;;;5.40;2.30;;;;;;;23.31;45.71;101671.56;5011728;28;20133;-73
2022/07/22 07:01:55;;;;;;;3.65;2.13;;;;;;;23.30;45.92;101667.97;5004942;28;20141;-71
2022/07/22 07:04:25;;;;;;;3.50;1.85;;;;;;;23.32;46.23;101670.53;5004865;28;20049;-71
2022/07/22 07:06:54;;;;;;;6.82;2.50;;;;;;;23.36;46.21;101666.41;5010974;28;20597;-71
2022/07/22 07:09:36;;;;;;;5.43;2.30;;;;;;;23.33;46.37;101670.38;5009540;28;20038;-71
2022/07/22 07:12:14;;;;;;;4.78;2.00;;;;;;;23.35;46.36;101671.09;5007238;28;20046;-71
2022/07/22 07:15:20;;;;;;;3.25;1.95;;;;;;;23.36;46.36;101674.72;5004333;28;20046;-71
2022/07/22 07:17:55;;;;;;;5.82;2.30;;;;;;;23.40;45.89;101678.91;5017485;28;20358;-72
2022/07/22 07:20:24;;;;;;;3.42;1.90;;;;;;;23.40;46.27;101673.34;5011901;28;20530;-73
2022/07/22 07:22:54;;;;;;;4.55;1.92;;;;;;;23.44;46.12;101683.97;5004754;28;20458;-73
2022/07/22 07:25:24;;;;;;;4.67;1.90;;;;;;;23.42;46.51;101676.84;5011636;28;20053;-72
2022/07/22 07:27:55;;;;;;;4.57;2.03;;;;;;;23.46;46.27;101676.34;4991052;28;20065;-73
2022/07/22 07:30:45;;;;;;;3.67;2.20;;;;;;;23.48;46.34;101665.97;5022679;28;20049;-72
2022/07/22 07:33:13;;;;;;;3.80;2.00;;;;;;;23.51;46.19;101665.66;5032405;28;20045;-72
2022/07/22 07:35:42;;;;;;;4.68;2.25;;;;;;;23.56;46.04;101661.50;5022941;28;20041;-73
2022/07/22 07:38:12;;;;;;;5.22;2.50;;;;;;;23.59;45.48;101662.03;5027917;28;20048;-74
2022/07/22 07:40:42;;;;;;;4.30;2.33;;;;;;;23.59;45.55;101667.59;5027437;28;20144;-72
2022/07/22 07:43:12;;;;;;;3.90;1.85;;;;;;;23.60;45.22;101662.91;5017445;28;20045;-71
2022/07/22 07:45:40;;;;;;;3.78;2.40;;;;;;;23.60;45.34;101661.00;5032714;28;20044;-71
2022/07/22 07:48:09;;;;;;;4.65;2.30;;;;;;;23.60;45.61;101662.91;5016400;28;20136;-72
2022/07/22 07:50:37;;;;;;;5.22;2.50;;;;;;;23.62;45.12;101658.06;5015171;28;20638;-72
2022/07/22 07:53:06;;;;;;;4.00;2.47;;;;;;;23.60;45.13;101652.69;5008441;28;20050;-74
2022/07/22 07:55:38;;;;;;;4.18;2.25;;;;;;;23.63;44.84;101657.03;5025372;28;20056;-73
2022/07/22 07:58:06;;;;;;;4.97;2.45;;;;;;;23.61;44.91;101653.56;5024367;28;20498;-72
2022/07/22 08:00:35;;;;;;;4.53;2.70;;;;;;;23.62;44.67;101663.63;4994179;28;20049;-72
2022/07/22 08:03:04;;;;;;;5.80;2.72;;;;;;;23.62;44.77;101658.06;4980279;28;20050;-72
2022/07/22 08:05:36;;;;;;;4.68;2.67;;;;;;;23.63;44.62;101662.59;5027023;28;20111;-72
2022/07/22 08:08:05;;;;;;;5.35;3.05;;;;;;;23.63;44.72;101663.47;5010546;28;20413;-72
2022/07/22 08:10:45;;;;;;;5.43;3.28;;;;;;;23.64;44.66;101656.84;4995984;28;20125;-72
2022/07/22 08:13:43;;;;;;;5.78;3.30;;;;;;;23.59;44.32;101650.94;5006491;28;20065;-72
2022/07/22 08:16:31;;;;;;;5.25;2.88;;;;;;;23.60;44.58;101660.13;5010160;28;20723;-72
2022/07/22 08:18:59;;;;;;;5.47;3.17;;;;;;;23.60;44.38;101658.25;4985517;28;20052;-72
2022/07/22 08:21:28;;;;;;;5.72;3.10;;;;;;;23.62;44.28;101660.84;4998428;28;20398;-72
2022/07/22 08:23:57;;;;;;;6.80;3.55;;;;;;;23.61;44.25;101659.09;5008931;28;20053;-66
2022/07/22 08:26:27;;;;;;;5.15;3.22;;;;;;;23.63;44.49;101655.16;5008908;28;20037;-64
2022/07/22 08:29:00;;;;;;;5.90;3.15;;;;;;;23.61;44.71;101646.13;5037423;28;20128;-64
2022/07/22 08:31:31;;;;;;;6.50;3.08;;;;;;;23.63;44.49;101652.38;5010065;28;20042;-64
2022/07/22 08:34:00;;;;;;;5.28;2.83;;;;;;;23.66;44.75;101665.00;5005704;28;20050;-64
2022/07/22 08:36:28;;;;;;;6.15;3.13;;;;;;;23.67;44.51;101662.06;5018580;28;20057;-64
2022/07/22 08:38:57;;;;;;;7.07;3.25;;;;;;;23.71;44.81;101666.25;5017061;28;20080;-64
2022/07/22 08:41:28;;;;;;;5.28;3.20;;;;;;;23.76;44.80;101654.66;5017806;28;20294;-64
2022/07/22 08:43:57;;;;;;;7.25;3.50;;;;;;;23.79;44.53;101666.28;5008867;28;20099;-63
2022/07/22 08:46:25;;;;;;;6.03;3.47;;;;;;;23.82;44.69;101673.38;5023650;28;20049;-64
2022/07/22 08:49:15;;;;;;;7.47;3.53;;;;;;;23.87;44.29;101674.63;5025722;28;20068;-64
2022/07/22 08:52:04;;;;;;;7.85;3.42;;;;;;;23.89;44.29;101666.13;5003086;28;20041;-63
2022/07/22 08:54:42;;;;;;;6.55;3.22;;;;;;;23.94;44.34;101671.16;5008803;28;20042;-63
2022/07/22 08:57:13;;;;;;;6.13;3.20;;;;;;;23.99;43.80;101674.28;5006821;28;20053;-63
2022/07/22 08:59:52;;;;;;;5.90;3.38;;;;;;;24.05;43.80;101679.19;4999934;28;20046;-63
2022/07/22 09:02:21;;;;;;;7.05;3.08;;;;;;;24.05;44.32;101680.03;5002768;28;20056;-63
2022/07/22 09:04:55;;;;;;;5.65;3.53;;;;;;;24.11;43.86;101679.38;5002228;28;20044;-63
2022/07/22 09:07:29;;;;;;;6.97;3.78;;;;;;;24.15;43.72;101677.97;4987354;28;20145;-63
2022/07/22 09:10:05;;;;;;;7.22;4.07;;;;;;;24.17;43.66;101678.66;5013219;28;20045;-62
2022/07/22 09:12:57;;;;;;;7.78;4.03;;;;;;;24.19;43.35;101670.19;5014092;28;20061;-63
2022/07/22 09:15:48;;;;;;;7.28;3.63;;;;;;;24.21;43.08;101665.38;5003692;28;20615;-63
2022/07/22 09:18:46;;;;;;;6.82;3.80;;;;;;;24.21;43.17;101659.81;5003756;28;20541;-63
2022/07/22 09:21:30;;;;;;;5.75;3.53;;;;;;;24.20;43.72;101660.81;5021433;28;20195;-63
2022/07/22 09:24:35;;;;;;;6.60;4.00;;;;;;;24.23;43.58;101666.03;4982534;28;20467;-62
2022/07/22 09:27:28;;;;;;;7.25;3.88;;;;;;;24.25;43.42;101663.97;5006209;28;20144;-63
2022/07/22 09:30:20;;;;;;;6.45;3.58;;;;;;;24.30;43.70;101666.22;5018151;28;20504;-63
2022/07/22 09:32:56;;;;;;;6.63;3.42;;;;;;;24.32;43.73;101670.56;5019765;28;20506;-63
2022/07/22 09:35:39;;;;;;;7.05;3.72;;;;;;;24.36;43.88;101673.88;5048591;22;20046;-63
2022/07/22 09:38:16;;;;;;;7.35;4.20;;;;;;;24.42;43.73;101673.19;5008540;28;20559;-64
2022/07/22 09:40:49;;;;;;;5.70;3.60;;;;;;;24.45;43.41;101679.25;5027695;28;20038;-61
2022/07/22 09:43:20;;;;;;;6.00;3.58;;;;;;;24.49;43.14;101679.75;5025329;28;20084;-61
2022/07/22 09:45:51;;;;;;;5.75;3.78;;;;;;;24.52;42.50;101685.00;5025865;28;20077;-72
2022/07/22 09:48:23;;;;;;;9.88;4.00;;;;;;;24.51;42.85;101686.03;5009726;28;20055;-70
2022/07/22 09:51:14;;;;;;;9.45;4.38;;;;;;;24.49;42.95;101680.63;5021535;28;20049;-70
2022/07/22 09:53:56;;;;;;;7.07;4.32;;;;;;;24.53;42.87;101679.25;5008543;28;20529;-71
2022/07/22 09:56:29;;;;;;;6.72;4.28;;;;;;;24.54;42.62;101675.41;5027484;28;20041;-71
2022/07/22 09:58:58;;;;;;;7.47;4.60;;;;;;;24.54;42.91;101664.31;5008901;28;20071;-72
2022/07/22 10:01:37;;;;;;;7.47;4.45;;;;;;;24.56;42.83;101672.47;5008811;28;20072;-72
2022/07/22 10:04:07;;;;;;;7.38;4.40;;;;;;;24.57;42.80;101663.09;5007986;28;20045;-72
2022/07/22 10:06:38;;;;;;;9.00;4.68;;;;;;;24.59;42.85;101656.34;5023032;28;20049;-72
2022/07/22 10:09:12;;;;;;;7.32;4.28;;;;;;;24.60;42.84;101655.31;5006743;28;20041;-71
2022/07/22 10:11:45;;;;;;;9.43;4.90;;;;;;;24.61;42.76;101651.50;5011184;28;20072;-68
2022/07/22 10:14:15;;;;;;;;;;;;;;;24.40;43.63;101653.03;5010051;28;20042;-68
2022/07/22 10:16:55;;;;;;;8.82;4.57;;;;;;;24.70;42.92;101652.34;5009519;28;19921;-68
2022/07/22 10:19:24;;;;;;;7.88;4.75;;;;;;;24.78;42.80;101649.56;5026602;28;20045;-68
2022/07/22 10:21:52;;;;;;;7.90;5.32;;;;;;;24.83;42.48;101643.47;5026875;28;20437;-68
2022/07/22 10:24:23;;;;;;;8.27;5.63;;;;;;;24.89;42.34;101640.84;5009293;28;20345;-75
2022/07/22 10:27:01;;;;;;;8.82;5.35;;;;;;;24.92;42.26;101626.66;5008545;28;20053;-72
2022/07/22 10:29:32;;;;;;;8.20;5.80;;;;;;;25.02;42.42;101626.47;5024194;28;20045;-71
2022/07/22 10:32:24;;;;;;;7.43;5.20;;;;;;;25.05;42.13;101628.84;5025284;28;20092;-72
2022/07/22 10:35:24;;;;;;;10.10;6.07;;;;;;;25.11;41.64;101617.06;5029970;28;20038;-72
2022/07/22 10:38:00;;;;;;;8.63;5.57;;;;;;;25.21;42.13;101616.81;5002661;28;20069;-72
2022/07/22 10:40:30;;;;;;;9.02;5.82;;;;;;;25.27;42.04;101622.56;5018946;28;20041;-72
2022/07/22 10:43:20;;;;;;;9.60;5.63;;;;;;;25.34;41.81;101623.56;5028741;28;20068;-74
2022/07/22 10:45:51;;;;;;;10.27;6.30;;;;;;;25.44;41.98;101616.94;5022980;28;20441;-74
2022/07/22 10:48:26;;;;;;;12.63;7.10;;;;;;;25.52;40.78;101620.53;5007103;28;20070;-72
2022/07/22 10:51:06;;;;;;;11.57;7.45;;;;;;;25.58;41.32;101619.78;5023501;28;20045;-72
2022/07/22 10:53:59;;;;;;;10.52;6.32;;;;;;;25.62;41.11;101617.53;5022847;28;20557;-72
2022/07/22 10:56:29;;;;;;;9.90;6.90;;;;;;;25.71;41.38;101616.44;5009957;28;20297;-72
2022/07/22 10:59:08;;;;;;;9.73;7.00;;;;;;;25.81;40.51;101619.00;5029239;28;20038;-73
2022/07/22 11:01:38;;;;;;;12.43;7.30;;;;;;;25.86;40.93;101617.38;5026033;28;20366;-72
2022/07/22 11:04:14;;;;;;;10.30;7.28;;;;;;;25.95;40.28;101630.19;5023259;28;20128;-72
2022/07/22 11:06:47;;;;;;;11.77;7.97;;;;;;;26.00;40.75;101630.53;5017330;28;20092;-73
2022/07/22 11:09:16;;;;;;;12.10;8.50;;;;;;;26.07;40.30;101622.31;5025465;28;20041;-74
2022/07/22 11:11:46;;;;;;;13.07;8.13;;;;;;;26.12;40.12;101620.69;5013690;28;20049;-71
2022/07/22 11:14:19;;;;;;;;;;;;;;;25.88;40.97;101614.44;5008772;28;20080;-73
2022/07/22 11:16:49;;;;;;;12.52;7.78;;;;;;;26.20;40.32;101613.31;5027426;28;20417;-72
2022/07/22 11:19:23;;;;;;;12.00;8.25;;;;;;;26.33;39.54;101610.81;5024416;28;20125;-72
2022/07/22 11:21:53;;;;;;;13.38;8.45;;;;;;;26.38;39.96;101606.41;5025911;28;20057;-72
2022/07/22 11:24:23;;;;;;;12.70;8.50;;;;;;;26.44;40.43;101602.88;5010127;28;20442;-71
2022/07/22 11:26:58;;;;;;;13.38;9.07;;;;;;;26.52;39.89;101607.50;5027599;28;20041;-73
2022/07/22 11:29:34;;;;;;;12.65;8.70;;;;;;;26.59;39.49;101599.28;5035650;28;20041;-73
2022/07/22 11:32:05;;;;;;;14.65;9.75;;;;;;;26.66;39.22;101592.75;5008055;28;20081;-73
2022/07/22 11:34:36;;;;;;;13.05;9.25;;;;;;;26.72;39.14;101600.34;5020222;28;20133;-73
2022/07/22 11:37:05;;;;;;;13.50;9.55;;;;;;;26.74;39.32;101592.69;5011378;28;20049;-73
2022/07/22 11:39:32;;;;;;;13.63;9.95;;;;;;;26.79;39.18;101592.97;5025737;28;20116;-73
2022/07/22 11:42:01;;;;;;;13.05;9.48;;;;;;;26.84;39.17;101592.41;5009007;28;20083;-74
2022/07/22 11:44:30;;;;;;;13.13;9.57;;;;;;;26.88;38.65;101591.81;5013953;28;20042;-73
2022/07/22 11:46:59;;;;;;;12.82;9.75;;;;;;;26.93;39.16;101591.28;5029185;28;20041;-73
2022/07/22 11:49:28;;;;;;;13.32;9.93;;;;;;;26.99;39.08;101589.66;5027123;28;20463;-72
2022/07/22 11:52:00;;;;;;;12.45;8.95;;;;;;;27.06;38.31;101593.41;5027653;28;20041;-71
2022/07/22 11:54:28;;;;;;;12.77;9.37;;;;;;;27.08;38.77;101580.13;5020772;28;20045;-72
2022/07/22 11:56:56;;;;;;;13.23;9.18;;;;;;;27.16;38.62;101582.81;5028791;28;20037;-72
2022/07/22 11:59:25;;;;;;;13.00;8.80;;;;;;;27.23;38.22;101576.28;5025614;28;20045;-72
2022/07/22 12:01:53;;;;;;;14.13;8.85;;;;;;;27.30;38.01;101569.91;5026704;28;20045;-72
2022/07/22 12:04:24;;;;;;;11.40;8.45;;;;;;;27.39;37.93;101572.41;5022551;28;20251;-72
2022/07/22 12:06:54;;;;;;;11.65;8.38;;;;;;;27.45;37.64;101566.03;5020687;28;20302;-72
2022/07/22 12:09:25;;;;;;;12.63;8.82;;;;;;;27.51;36.86;101570.81;5022791;28;20119;-72
2022/07/22 12:11:55;;;;;;;13.35;8.77;;;;;;;27.55;37.48;101566.63;5027322;28;20541;-73
2022/07/22 12:14:26;;;;;;;13.00;9.15;;;;;;;27.61;37.66;101563.03;5021570;28;20103;-72
2022/07/22 12:16:56;;;;;;;14.00;8.95;;;;;;;27.68;37.26;101565.03;5026466;28;20056;-72
2022/07/22 12:19:25;;;;;;;12.50;8.75;;;;;;;27.72;37.52;101567.25;5019952;28;20045;-72
2022/07/22 12:21:56;;;;;;;12.65;9.63;;;;;;;27.80;37.19;101552.31;5028959;28;20120;-72
2022/07/22 12:24:30;;;;;;;13.05;9.38;;;;;;;27.89;36.99;101551.13;5026719;28;20057;-72
2022/07/22 12:27:00;;;;;;;12.90;8.43;;;;;;;27.94;37.33;101549.44;5025318;28;20038;-73
2022/07/22 12:29:30;;;;;;;11.85;9.05;;;;;;;28.05;37.33;101552.78;5024552;28;20041;-72
2022/07/22 12:32:00;;;;;;;12.13;9.15;;;;;;;28.13;36.99;101542.34;5023416;28;20037;-72
2022/07/22 12:34:36;;;;;;;12.40;8.73;;;;;;;28.24;35.72;101546.56;5024360;28;20045;-72
2022/07/22 12:37:17;;;;;;;11.50;8.73;;;;;;;28.31;35.56;101544.69;5023888;28;20061;-72
2022/07/22 12:39:57;;;;;;;12.18;8.68;;;;;;;28.36;34.88;101544.94;5021913;28;20100;-72
2022/07/22 12:42:27;;;;;;;11.82;8.65;;;;;;;28.36;35.47;101543.00;5009184;28;20046;-72
2022/07/22 12:45:01;;;;;;;11.63;8.35;;;;;;;28.42;34.65;101537.66;5023956;28;20041;-72
2022/07/22 12:47:47;;;;;;;12.07;8.73;;;;;;;28.38;34.88;101534.41;5028022;28;20045;-72
2022/07/22 12:50:25;;;;;;;11.00;8.43;;;;;;;28.41;35.15;101531.25;5025541;28;20465;-72
2022/07/22 12:52:55;;;;;;;11.77;7.90;;;;;;;28.41;35.69;101524.78;5027069;28;20080;-72
2022/07/22 12:55:46;;;;;;;12.20;8.65;;;;;;;28.43;35.49;101533.81;5026397;28;20064;-72
2022/07/22 12:58:16;;;;;;;11.43;8.20;;;;;;;28.43;35.55;101531.00;5025798;28;20100;-72
2022/07/22 13:00:48;;;;;;;12.15;8.13;;;;;;;28.45;35.27;101523.28;5023887;28;20502;-72
2022/07/22 13:03:19;;;;;;;12.82;8.55;;;;;;;28.50;35.06;101515.16;5025345;28;20052;-72
2022/07/22 13:05:48;;;;;;;13.20;8.25;;;;;;;28.52;35.49;101515.81;5023943;28;20100;-72
2022/07/22 13:08:16;;;;;;;12.93;9.18;;;;;;;28.52;35.48;101513.88;5008392;28;20045;-72
2022/07/22 13:10:45;;;;;;;15.00;9.20;;;;;;;28.55;35.06;101505.13;5025326;28;20037;-72
2022/07/22 13:13:13;;;;;;;11.00;8.38;;;;;;;28.56;35.18;101505.97;5024597;28;20242;-71
2022/07/22 13:15:41;;;;;;;12.02;8.43;;;;;;;28.59;35.11;101516.72;5001672;28;20080;-71
2022/07/22 13:18:10;;;;;;;10.88;7.90;;;;;;;28.62;35.14;101507.94;5021291;28;20137;-71
2022/07/22 13:20:37;;;;;;;12.82;8.20;;;;;;;28.65;34.81;101500.03;5013353;28;20064;-71
2022/07/22 13:23:06;;;;;;;11.25;8.13;;;;;;;28.68;34.72;101507.97;5010625;28;20046;-71
2022/07/22 13:25:35;;;;;;;10.82;8.05;;;;;;;28.74;34.69;101507.16;5020460;28;20080;-70
2022/07/22 13:28:05;;;;;;;11.00;8.20;;;;;;;28.80;34.50;101499.94;5021317;28;20069;-70
2022/07/22 13:30:33;;;;;;;10.82;7.70;;;;;;;28.83;34.54;101496.69;5019754;28;20057;-70
2022/07/22 13:33:01;;;;;;;10.88;7.57;;;;;;;28.90;34.31;101500.44;4996385;28;20583;-71
2022/07/22 13:35:30;;;;;;;13.50;8.90;;;;;;;28.95;33.95;101502.59;5023148;28;20127;-70